sensor_id;sensor_type;location;lat;lon;timestamp;pressure;altitude;pressure_sealevel;temperature;humidity
59971;BME280;45825;45.434;9.116;2023-04-27T00:02:06;100239.97;;;15.75;47.63
59971;BME280;45825;45.434;9.116;2023-04-27T00:04:32;100235.97;;;15.70;47.72
59971;BME280;45825;45.434;9.116;2023-04-27T00:06:57;100243.09;;;15.69;47.52
59971;BME280;45825;45.434;9.116;2023-04-27T00:09:22;100242.25;;;15.57;48.12
59971;BME280;45825;45.434;9.116;2023-04-27T00:11:47;100248.88;;;15.52;48.42
59971;BME280;45825;45.434;9.116;2023-04-27T00:14:13;100258.59;;;15.51;48.57
59971;BME280;45825;45.434;9.116;2023-04-27T00:16:38;100257.66;;;15.52;48.45
59971;BME280;45825;45.434;9.116;2023-04-27T00:19:03;100253.19;;;15.53;48.64
59971;BME280;45825;45.434;9.116;2023-04-27T00:21:29;100252.59;;;15.49;48.64
59971;BME280;45825;45.434;9.116;2023-04-27T00:23:54;100254.88;;;15.42;49.28
59971;BME280;45825;45.434;9.116;2023-04-27T00:26:19;100252.66;;;15.36;49.32
59971;BME280;45825;45.434;9.116;2023-04-27T00:28:46;100257.53;;;15.42;49.72
59971;BME280;45825;45.434;9.116;2023-04-27T00:31:12;100245.84;;;15.45;49.11
59971;BME280;45825;45.434;9.116;2023-04-27T00:33:37;100244.19;;;15.55;49.07
59971;BME280;45825;45.434;9.116;2023-04-27T00:36:02;100244.13;;;15.44;49.83
59971;BME280;45825;45.434;9.116;2023-04-27T00:38:28;100251.16;;;15.45;49.52
59971;BME280;45825;45.434;9.116;2023-04-27T00:41:04;100248.09;;;15.38;49.77
59971;BME280;45825;45.434;9.116;2023-04-27T00:43:30;100249.63;;;15.29;50.09
59971;BME280;45825;45.434;9.116;2023-04-27T00:45:57;100240.97;;;15.27;50.41
59971;BME280;45825;45.434;9.116;2023-04-27T00:48:23;100247.22;;;15.26;50.13
59971;BME280;45825;45.434;9.116;2023-04-27T00:50:49;100245.56;;;15.36;49.93
59971;BME280;45825;45.434;9.116;2023-04-27T00:53:15;100252.31;;;15.41;49.36
59971;BME280;45825;45.434;9.116;2023-04-27T00:55:41;100251.84;;;15.35;49.50
59971;BME280;45825;45.434;9.116;2023-04-27T00:58:07;100247.25;;;15.38;48.79
59971;BME280;45825;45.434;9.116;2023-04-27T01:00:34;100248.34;;;15.35;49.00
59971;BME280;45825;45.434;9.116;2023-04-27T01:03:00;100251.09;;;15.33;49.55
59971;BME280;45825;45.434;9.116;2023-04-27T01:05:26;100253.38;;;15.27;49.85
59971;BME280;45825;45.434;9.116;2023-04-27T01:07:51;100246.50;;;15.24;50.05
59971;BME280;45825;45.434;9.116;2023-04-27T01:10:16;100251.47;;;15.29;49.63
59971;BME280;45825;45.434;9.116;2023-04-27T01:12:42;100253.38;;;15.27;50.16
59971;BME280;45825;45.434;9.116;2023-04-27T01:15:08;100245.31;;;15.28;50.37
59971;BME280;45825;45.434;9.116;2023-04-27T01:17:33;100239.88;;;15.18;50.49
59971;BME280;45825;45.434;9.116;2023-04-27T01:19:59;100248.91;;;15.27;50.77
59971;BME280;45825;45.434;9.116;2023-04-27T01:22:24;100254.31;;;15.26;51.14
59971;BME280;45825;45.434;9.116;2023-04-27T01:24:50;100250.72;;;15.27;50.83
59971;BME280;45825;45.434;9.116;2023-04-27T01:27:16;100248.66;;;15.19;50.63
59971;BME280;45825;45.434;9.116;2023-04-27T01:29:41;100249.59;;;15.18;51.60
59971;BME280;45825;45.434;9.116;2023-04-27T01:32:08;100255.88;;;15.17;51.50
59971;BME280;45825;45.434;9.116;2023-04-27T01:34:33;100263.53;;;15.08;51.65
59971;BME280;45825;45.434;9.116;2023-04-27T01:36:58;100259.88;;;14.98;52.23
59971;BME280;45825;45.434;9.116;2023-04-27T01:39:23;100261.03;;;15.07;52.66
59971;BME280;45825;45.434;9.116;2023-04-27T01:41:49;100260.84;;;14.97;52.75
59971;BME280;45825;45.434;9.116;2023-04-27T01:44:15;100267.84;;;14.98;52.98
59971;BME280;45825;45.434;9.116;2023-04-27T01:46:40;100267.16;;;15.07;52.77
59971;BME280;45825;45.434;9.116;2023-04-27T01:49:06;100276.31;;;15.03;53.42
59971;BME280;45825;45.434;9.116;2023-04-27T01:51:31;100275.44;;;15.03;53.80
59971;BME280;45825;45.434;9.116;2023-04-27T01:53:57;100271.34;;;14.99;53.80
59971;BME280;45825;45.434;9.116;2023-04-27T01:56:23;100275.69;;;15.00;54.09
59971;BME280;45825;45.434;9.116;2023-04-27T01:58:48;100282.63;;;14.89;54.36
59971;BME280;45825;45.434;9.116;2023-04-27T02:01:13;100277.81;;;14.94;54.25
59971;BME280;45825;45.434;9.116;2023-04-27T02:03:38;100273.94;;;14.87;54.36
59971;BME280;45825;45.434;9.116;2023-04-27T02:06:04;100281.22;;;14.97;54.48
59971;BME280;45825;45.434;9.116;2023-04-27T02:08:29;100279.63;;;14.94;54.59
59971;BME280;45825;45.434;9.116;2023-04-27T02:10:55;100285.84;;;14.82;54.67
59971;BME280;45825;45.434;9.116;2023-04-27T02:15:50;100289.44;;;14.80;54.84
59971;BME280;45825;45.434;9.116;2023-04-27T02:18:16;100281.59;;;14.79;54.95
59971;BME280;45825;45.434;9.116;2023-04-27T02:20:41;100291.03;;;14.70;55.09
59971;BME280;45825;45.434;9.116;2023-04-27T02:23:06;100295.28;;;14.73;55.33
59971;BME280;45825;45.434;9.116;2023-04-27T02:25:32;100291.88;;;14.71;55.35
59971;BME280;45825;45.434;9.116;2023-04-27T02:27:57;100292.81;;;14.70;55.93
59971;BME280;45825;45.434;9.116;2023-04-27T02:30:22;100302.16;;;14.62;55.40
59971;BME280;45825;45.434;9.116;2023-04-27T02:32:47;100298.56;;;14.63;56.24
59971;BME280;45825;45.434;9.116;2023-04-27T02:35:13;100300.78;;;14.70;56.67
59971;BME280;45825;45.434;9.116;2023-04-27T02:37:38;100303.41;;;14.70;56.59
59971;BME280;45825;45.434;9.116;2023-04-27T02:40:04;100304.72;;;14.51;56.79
59971;BME280;45825;45.434;9.116;2023-04-27T02:42:32;100306.94;;;14.57;56.66
59971;BME280;45825;45.434;9.116;2023-04-27T02:44:57;100301.81;;;14.43;56.87
59971;BME280;45825;45.434;9.116;2023-04-27T02:47:22;100311.19;;;14.60;56.14
59971;BME280;45825;45.434;9.116;2023-04-27T02:49:48;100314.03;;;14.57;56.69
59971;BME280;45825;45.434;9.116;2023-04-27T02:52:14;100316.59;;;14.58;56.80
59971;BME280;45825;45.434;9.116;2023-04-27T02:54:39;100316.94;;;14.41;56.67
59971;BME280;45825;45.434;9.116;2023-04-27T02:57:05;100316.31;;;14.37;56.79
59971;BME280;45825;45.434;9.116;2023-04-27T02:59:31;100316.75;;;14.31;57.63
59971;BME280;45825;45.434;9.116;2023-04-27T03:01:56;100329.56;;;14.37;57.65
59971;BME280;45825;45.434;9.116;2023-04-27T03:04:22;100320.56;;;14.27;58.13
59971;BME280;45825;45.434;9.116;2023-04-27T03:06:47;100313.78;;;14.35;57.55
59971;BME280;45825;45.434;9.116;2023-04-27T03:09:12;100318.34;;;14.20;57.79
59971;BME280;45825;45.434;9.116;2023-04-27T03:11:38;100326.91;;;14.24;58.76
59971;BME280;45825;45.434;9.116;2023-04-27T03:14:04;100323.75;;;14.06;58.59
59971;BME280;45825;45.434;9.116;2023-04-27T03:16:33;100318.66;;;14.16;58.27
59971;BME280;45825;45.434;9.116;2023-04-27T03:18:59;100313.69;;;14.11;57.90
59971;BME280;45825;45.434;9.116;2023-04-27T03:21:24;100326.59;;;14.16;58.47
59971;BME280;45825;45.434;9.116;2023-04-27T03:23:50;100319.63;;;14.15;58.87
59971;BME280;45825;45.434;9.116;2023-04-27T03:26:16;100321.84;;;14.08;58.86
59971;BME280;45825;45.434;9.116;2023-04-27T03:28:41;100321.75;;;13.96;59.03
59971;BME280;45825;45.434;9.116;2023-04-27T03:31:11;100309.81;;;14.04;58.82
59971;BME280;45825;45.434;9.116;2023-04-27T03:33:37;100312.00;;;14.10;58.39
59971;BME280;45825;45.434;9.116;2023-04-27T03:36:04;100311.50;;;14.05;59.63
59971;BME280;45825;45.434;9.116;2023-04-27T03:38:30;100312.53;;;13.89;58.94
59971;BME280;45825;45.434;9.116;2023-04-27T03:40:55;100320.69;;;13.86;59.71
59971;BME280;45825;45.434;9.116;2023-04-27T03:43:22;100323.66;;;13.94;59.02
59971;BME280;45825;45.434;9.116;2023-04-27T03:45:48;100328.19;;;13.79;59.58
59971;BME280;45825;45.434;9.116;2023-04-27T03:48:14;100322.69;;;13.82;58.97
59971;BME280;45825;45.434;9.116;2023-04-27T03:50:40;100324.91;;;13.76;59.62
59971;BME280;45825;45.434;9.116;2023-04-27T03:53:05;100326.69;;;13.62;59.22
59971;BME280;45825;45.434;9.116;2023-04-27T03:55:31;100324.34;;;13.71;59.85
59971;BME280;45825;45.434;9.116;2023-04-27T03:57:57;100328.16;;;13.66;60.39
59971;BME280;45825;45.434;9.116;2023-04-27T04:00:22;100328.47;;;13.62;59.63
59971;BME280;45825;45.434;9.116;2023-04-27T04:02:47;100324.75;;;13.51;59.86
59971;BME280;45825;45.434;9.116;2023-04-27T04:05:13;100332.47;;;13.54;59.77
59971;BME280;45825;45.434;9.116;2023-04-27T04:07:39;100343.50;;;13.61;59.19
59971;BME280;45825;45.434;9.116;2023-04-27T04:10:06;100341.47;;;13.52;59.96
59971;BME280;45825;45.434;9.116;2023-04-27T04:12:32;100334.31;;;13.67;59.51
59971;BME280;45825;45.434;9.116;2023-04-27T04:14:57;100344.59;;;13.72;59.79
59971;BME280;45825;45.434;9.116;2023-04-27T04:17:23;100347.00;;;13.75;59.66
59971;BME280;45825;45.434;9.116;2023-04-27T04:19:48;100357.28;;;13.79;59.29
59971;BME280;45825;45.434;9.116;2023-04-27T04:22:13;100357.81;;;13.72;58.94
59971;BME280;45825;45.434;9.116;2023-04-27T04:24:38;100350.19;;;13.67;59.25
59971;BME280;45825;45.434;9.116;2023-04-27T04:27:04;100356.84;;;13.73;58.84
59971;BME280;45825;45.434;9.116;2023-04-27T04:29:30;100365.41;;;13.76;59.07
59971;BME280;45825;45.434;9.116;2023-04-27T04:31:55;100369.31;;;13.71;59.43
59971;BME280;45825;45.434;9.116;2023-04-27T04:34:20;100373.31;;;13.63;59.52
59971;BME280;45825;45.434;9.116;2023-04-27T04:36:46;100373.72;;;13.57;58.89
59971;BME280;45825;45.434;9.116;2023-04-27T04:39:11;100375.84;;;13.52;58.82
59971;BME280;45825;45.434;9.116;2023-04-27T04:41:37;100378.06;;;13.58;58.51
59971;BME280;45825;45.434;9.116;2023-04-27T04:44:03;100378.50;;;13.65;58.16
59971;BME280;45825;45.434;9.116;2023-04-27T04:46:28;100382.66;;;13.69;58.36
59971;BME280;45825;45.434;9.116;2023-04-27T04:48:54;100377.25;;;13.71;57.37
59971;BME280;45825;45.434;9.116;2023-04-27T04:51:20;100392.06;;;13.73;57.62
59971;BME280;45825;45.434;9.116;2023-04-27T04:53:45;100384.72;;;13.64;57.68
59971;BME280;45825;45.434;9.116;2023-04-27T04:56:12;100398.81;;;13.64;57.13
59971;BME280;45825;45.434;9.116;2023-04-27T04:58:38;100394.19;;;13.68;57.65
59971;BME280;45825;45.434;9.116;2023-04-27T05:01:05;100398.22;;;13.74;57.64
59971;BME280;45825;45.434;9.116;2023-04-27T05:03:31;100403.06;;;13.67;57.24
59971;BME280;45825;45.434;9.116;2023-04-27T05:05:56;100399.25;;;13.71;57.67
59971;BME280;45825;45.434;9.116;2023-04-27T05:08:22;100405.63;;;13.81;57.36
59971;BME280;45825;45.434;9.116;2023-04-27T05:10:51;100405.41;;;13.72;58.01
59971;BME280;45825;45.434;9.116;2023-04-27T05:13:17;100410.69;;;13.72;57.85
59971;BME280;45825;45.434;9.116;2023-04-27T05:15:42;100415.66;;;13.76;57.73
59971;BME280;45825;45.434;9.116;2023-04-27T05:18:08;100424.78;;;13.85;57.25
59971;BME280;45825;45.434;9.116;2023-04-27T05:20:34;100435.16;;;13.88;56.97
59971;BME280;45825;45.434;9.116;2023-04-27T05:23:00;100434.63;;;13.96;57.54
59971;BME280;45825;45.434;9.116;2023-04-27T05:25:28;100424.06;;;13.96;56.86
59971;BME280;45825;45.434;9.116;2023-04-27T05:27:53;100419.72;;;13.82;56.94
59971;BME280;45825;45.434;9.116;2023-04-27T05:30:19;100435.63;;;13.67;57.10
59971;BME280;45825;45.434;9.116;2023-04-27T05:32:44;100429.72;;;13.77;57.40
59971;BME280;45825;45.434;9.116;2023-04-27T05:35:09;100433.66;;;13.84;57.19
59971;BME280;45825;45.434;9.116;2023-04-27T05:37:35;100441.19;;;13.90;57.01
59971;BME280;45825;45.434;9.116;2023-04-27T05:40:00;100445.00;;;13.86;57.20
59971;BME280;45825;45.434;9.116;2023-04-27T05:42:26;100446.81;;;13.99;56.96
59971;BME280;45825;45.434;9.116;2023-04-27T05:44:51;100444.91;;;14.01;56.86
59971;BME280;45825;45.434;9.116;2023-04-27T05:47:16;100454.84;;;13.97;56.86
59971;BME280;45825;45.434;9.116;2023-04-27T05:49:42;100460.25;;;14.08;56.95
59971;BME280;45825;45.434;9.116;2023-04-27T05:52:07;100455.56;;;13.86;57.34
59971;BME280;45825;45.434;9.116;2023-04-27T05:54:32;100462.16;;;13.93;57.32
59971;BME280;45825;45.434;9.116;2023-04-27T05:56:58;100463.56;;;14.12;56.54
59971;BME280;45825;45.434;9.116;2023-04-27T05:59:23;100467.75;;;14.02;57.70
59971;BME280;45825;45.434;9.116;2023-04-27T06:01:48;100472.75;;;13.93;57.87
59971;BME280;45825;45.434;9.116;2023-04-27T06:04:14;100471.19;;;14.04;57.34
59971;BME280;45825;45.434;9.116;2023-04-27T06:06:39;100475.81;;;14.00;58.64
59971;BME280;45825;45.434;9.116;2023-04-27T06:09:04;100475.31;;;14.08;57.79
59971;BME280;45825;45.434;9.116;2023-04-27T06:11:30;100478.84;;;13.94;57.67
59971;BME280;45825;45.434;9.116;2023-04-27T06:13:55;100481.28;;;13.97;57.84
59971;BME280;45825;45.434;9.116;2023-04-27T06:16:22;100481.22;;;13.71;58.34
59971;BME280;45825;45.434;9.116;2023-04-27T06:18:49;100474.16;;;13.72;58.25
59971;BME280;45825;45.434;9.116;2023-04-27T06:21:14;100489.66;;;13.91;57.99
59971;BME280;45825;45.434;9.116;2023-04-27T06:23:40;100486.78;;;13.94;57.86
59971;BME280;45825;45.434;9.116;2023-04-27T06:26:05;100494.22;;;14.02;57.82
59971;BME280;45825;45.434;9.116;2023-04-27T06:28:31;100497.28;;;13.95;57.89
59971;BME280;45825;45.434;9.116;2023-04-27T06:30:56;100496.56;;;14.06;58.12
59971;BME280;45825;45.434;9.116;2023-04-27T06:33:21;100496.53;;;13.93;59.26
59971;BME280;45825;45.434;9.116;2023-04-27T06:35:47;100497.94;;;13.99;58.53
59971;BME280;45825;45.434;9.116;2023-04-27T06:38:12;100502.94;;;14.17;58.57
59971;BME280;45825;45.434;9.116;2023-04-27T06:40:37;100492.47;;;14.15;57.74
59971;BME280;45825;45.434;9.116;2023-04-27T06:43:03;100500.59;;;13.99;58.67
59971;BME280;45825;45.434;9.116;2023-04-27T06:45:28;100502.31;;;13.86;58.22
59971;BME280;45825;45.434;9.116;2023-04-27T06:47:54;100509.56;;;13.96;58.73
59971;BME280;45825;45.434;9.116;2023-04-27T06:50:19;100512.94;;;13.99;58.32
59971;BME280;45825;45.434;9.116;2023-04-27T06:52:44;100511.25;;;13.97;57.86
59971;BME280;45825;45.434;9.116;2023-04-27T06:55:10;100519.66;;;14.17;58.10
59971;BME280;45825;45.434;9.116;2023-04-27T06:57:35;100517.56;;;14.22;57.76
59971;BME280;45825;45.434;9.116;2023-04-27T07:00:01;100517.19;;;14.01;57.54
59971;BME280;45825;45.434;9.116;2023-04-27T07:02:27;100520.38;;;14.06;57.87
59971;BME280;45825;45.434;9.116;2023-04-27T07:04:53;100527.69;;;14.16;57.86
59971;BME280;45825;45.434;9.116;2023-04-27T07:07:18;100527.94;;;14.25;58.16
59971;BME280;45825;45.434;9.116;2023-04-27T07:09:43;100519.53;;;14.19;58.20
59971;BME280;45825;45.434;9.116;2023-04-27T07:12:09;100528.59;;;14.42;57.98
59971;BME280;45825;45.434;9.116;2023-04-27T07:14:34;100526.72;;;14.57;57.62
59971;BME280;45825;45.434;9.116;2023-04-27T07:16:59;100533.72;;;14.58;56.87
59971;BME280;45825;45.434;9.116;2023-04-27T07:19:24;100524.72;;;14.61;56.42
59971;BME280;45825;45.434;9.116;2023-04-27T07:21:50;100524.84;;;14.72;56.27
59971;BME280;45825;45.434;9.116;2023-04-27T07:24:15;100514.59;;;14.80;56.92
59971;BME280;45825;45.434;9.116;2023-04-27T07:26:41;100517.97;;;14.83;56.81
59971;BME280;45825;45.434;9.116;2023-04-27T07:29:06;100516.47;;;14.78;56.63
59971;BME280;45825;45.434;9.116;2023-04-27T07:31:33;100520.94;;;14.91;55.85
59971;BME280;45825;45.434;9.116;2023-04-27T07:33:58;100525.69;;;14.99;55.02
59971;BME280;45825;45.434;9.116;2023-04-27T07:36:24;100521.03;;;15.02;54.63
59971;BME280;45825;45.434;9.116;2023-04-27T07:38:51;100524.63;;;15.01;54.22
59971;BME280;45825;45.434;9.116;2023-04-27T07:41:17;100525.78;;;15.10;54.45
59971;BME280;45825;45.434;9.116;2023-04-27T07:43:42;100515.59;;;15.17;53.74
59971;BME280;45825;45.434;9.116;2023-04-27T07:46:07;100518.22;;;15.30;53.35
59971;BME280;45825;45.434;9.116;2023-04-27T07:48:36;100520.50;;;15.10;54.08
59971;BME280;45825;45.434;9.116;2023-04-27T07:51:10;100526.28;;;15.15;54.58
59971;BME280;45825;45.434;9.116;2023-04-27T07:53:39;100523.63;;;15.28;54.18
59971;BME280;45825;45.434;9.116;2023-04-27T07:56:05;100534.16;;;15.17;53.29
59971;BME280;45825;45.434;9.116;2023-04-27T07:58:31;100524.69;;;15.26;53.81
59971;BME280;45825;45.434;9.116;2023-04-27T08:00:56;100522.56;;;15.31;54.13
59971;BME280;45825;45.434;9.116;2023-04-27T08:03:21;100527.00;;;15.30;53.72
59971;BME280;45825;45.434;9.116;2023-04-27T08:05:46;100529.75;;;15.42;56.11
59971;BME280;45825;45.434;9.116;2023-04-27T08:08:12;100523.13;;;15.60;53.90
59971;BME280;45825;45.434;9.116;2023-04-27T08:10:37;100524.25;;;15.32;54.61
59971;BME280;45825;45.434;9.116;2023-04-27T08:13:03;100530.09;;;15.61;54.22
59971;BME280;45825;45.434;9.116;2023-04-27T08:15:29;100533.03;;;15.83;53.20
59971;BME280;45825;45.434;9.116;2023-04-27T08:17:54;100529.59;;;15.94;54.16
59971;BME280;45825;45.434;9.116;2023-04-27T08:20:20;100530.84;;;16.01;55.95
59971;BME280;45825;45.434;9.116;2023-04-27T08:22:45;100528.84;;;16.16;54.93
59971;BME280;45825;45.434;9.116;2023-04-27T08:25:10;100530.66;;;16.15;53.42
59971;BME280;45825;45.434;9.116;2023-04-27T08:27:37;100526.34;;;16.26;52.54
59971;BME280;45825;45.434;9.116;2023-04-27T08:30:03;100517.69;;;16.35;52.71
59971;BME280;45825;45.434;9.116;2023-04-27T08:32:28;100535.06;;;16.39;55.81
59971;BME280;45825;45.434;9.116;2023-04-27T08:34:54;100529.97;;;16.25;51.46
59971;BME280;45825;45.434;9.116;2023-04-27T08:37:19;100535.53;;;15.97;52.65
59971;BME280;45825;45.434;9.116;2023-04-27T08:39:46;100541.78;;;16.20;52.17
59971;BME280;45825;45.434;9.116;2023-04-27T08:42:12;100529.81;;;16.15;51.30
59971;BME280;45825;45.434;9.116;2023-04-27T08:44:42;100527.09;;;16.39;51.06
59971;BME280;45825;45.434;9.116;2023-04-27T08:47:08;100542.22;;;16.50;50.34
59971;BME280;45825;45.434;9.116;2023-04-27T08:49:34;100529.06;;;16.60;50.31
59971;BME280;45825;45.434;9.116;2023-04-27T08:52:02;100532.72;;;16.70;52.06
59971;BME280;45825;45.434;9.116;2023-04-27T08:54:27;100531.63;;;16.73;49.45
59971;BME280;45825;45.434;9.116;2023-04-27T08:56:52;100530.69;;;16.97;50.29
59971;BME280;45825;45.434;9.116;2023-04-27T08:59:18;100525.16;;;17.00;49.77
59971;BME280;45825;45.434;9.116;2023-04-27T09:01:46;100526.63;;;17.15;51.81
59971;BME280;45825;45.434;9.116;2023-04-27T09:04:13;100527.31;;;17.29;50.72
59971;BME280;45825;45.434;9.116;2023-04-27T09:06:38;100524.56;;;17.30;49.15
59971;BME280;45825;45.434;9.116;2023-04-27T09:09:04;100521.88;;;17.42;49.12
59971;BME280;45825;45.434;9.116;2023-04-27T09:13:59;100530.63;;;17.65;52.45
59971;BME280;45825;45.434;9.116;2023-04-27T09:16:26;100520.59;;;17.69;50.97
59971;BME280;45825;45.434;9.116;2023-04-27T09:18:52;100523.69;;;17.85;50.92
59971;BME280;45825;45.434;9.116;2023-04-27T09:21:22;100527.22;;;17.74;48.18
59971;BME280;45825;45.434;9.116;2023-04-27T09:23:48;100527.44;;;17.83;48.45
59971;BME280;45825;45.434;9.116;2023-04-27T09:26:19;100517.97;;;18.01;48.43
59971;BME280;45825;45.434;9.116;2023-04-27T09:28:47;100525.59;;;17.95;47.34
59971;BME280;45825;45.434;9.116;2023-04-27T09:31:13;100524.78;;;18.27;49.54
59971;BME280;45825;45.434;9.116;2023-04-27T09:33:39;100519.81;;;17.90;48.05
59971;BME280;45825;45.434;9.116;2023-04-27T09:36:05;100524.72;;;18.06;51.91
59971;BME280;45825;45.434;9.116;2023-04-27T09:38:31;100525.41;;;18.40;48.53
59971;BME280;45825;45.434;9.116;2023-04-27T09:40:58;100523.75;;;18.07;48.06
59971;BME280;45825;45.434;9.116;2023-04-27T09:43:24;100526.06;;;18.33;48.92
59971;BME280;45825;45.434;9.116;2023-04-27T09:45:52;100520.41;;;18.47;51.86
59971;BME280;45825;45.434;9.116;2023-04-27T09:48:20;100523.28;;;18.55;49.54
59971;BME280;45825;45.434;9.116;2023-04-27T09:50:47;100518.00;;;18.44;47.99
59971;BME280;45825;45.434;9.116;2023-04-27T09:53:18;100512.63;;;18.01;48.78
59971;BME280;45825;45.434;9.116;2023-04-27T09:55:58;100510.66;;;18.36;48.45
59971;BME280;45825;45.434;9.116;2023-04-27T10:08:59;100498.47;;;19.27;46.26
59971;BME280;45825;45.434;9.116;2023-04-27T10:11:42;100482.28;;;19.60;49.87
59971;BME280;45825;45.434;9.116;2023-04-27T10:14:16;100487.59;;;19.60;46.17
59971;BME280;45825;45.434;9.116;2023-04-27T10:16:55;100488.88;;;19.75;47.11
59971;BME280;45825;45.434;9.116;2023-04-27T10:19:22;100478.19;;;20.24;47.77
59971;BME280;45825;45.434;9.116;2023-04-27T10:22:01;100476.94;;;20.29;46.54
59971;BME280;45825;45.434;9.116;2023-04-27T10:24:40;100486.44;;;20.99;46.06
59971;BME280;45825;45.434;9.116;2023-04-27T10:27:09;100483.13;;;21.97;42.43
59971;BME280;45825;45.434;9.116;2023-04-27T10:29:41;100470.56;;;23.03;39.74
59971;BME280;45825;45.434;9.116;2023-04-27T10:32:22;100476.41;;;23.50;38.65
59971;BME280;45825;45.434;9.116;2023-04-27T10:34:51;100478.13;;;23.93;39.87
59971;BME280;45825;45.434;9.116;2023-04-27T10:37:37;100473.97;;;24.23;36.62
59971;BME280;45825;45.434;9.116;2023-04-27T10:40:05;100475.13;;;23.96;38.54
59971;BME280;45825;45.434;9.116;2023-04-27T10:42:31;100465.91;;;24.15;36.89
59971;BME280;45825;45.434;9.116;2023-04-27T10:44:57;100466.00;;;24.47;36.44
59971;BME280;45825;45.434;9.116;2023-04-27T10:47:23;100456.63;;;24.34;36.46
59971;BME280;45825;45.434;9.116;2023-04-27T10:49:51;100461.75;;;25.17;35.82
59971;BME280;45825;45.434;9.116;2023-04-27T10:52:17;100461.63;;;25.34;35.19
59971;BME280;45825;45.434;9.116;2023-04-27T10:54:45;100455.81;;;25.77;34.77
59971;BME280;45825;45.434;9.116;2023-04-27T10:57:11;100452.25;;;26.00;32.83
59971;BME280;45825;45.434;9.116;2023-04-27T10:59:48;100460.06;;;26.48;33.17
59971;BME280;45825;45.434;9.116;2023-04-27T11:02:14;100459.28;;;26.84;31.84
59971;BME280;45825;45.434;9.116;2023-04-27T11:04:40;100455.44;;;25.80;34.57
59971;BME280;45825;45.434;9.116;2023-04-27T11:07:09;100453.16;;;25.92;33.25
59971;BME280;45825;45.434;9.116;2023-04-27T11:09:35;100451.63;;;26.13;33.51
59971;BME280;45825;45.434;9.116;2023-04-27T11:12:04;100454.16;;;27.41;33.88
59971;BME280;45825;45.434;9.116;2023-04-27T11:14:30;100437.31;;;28.11;31.13
59971;BME280;45825;45.434;9.116;2023-04-27T11:16:56;100438.53;;;28.66;29.80
59971;BME280;45825;45.434;9.116;2023-04-27T11:19:21;100424.78;;;29.23;28.66
59971;BME280;45825;45.434;9.116;2023-04-27T11:21:46;100426.59;;;28.53;29.63
59971;BME280;45825;45.434;9.116;2023-04-27T11:24:12;100431.53;;;29.47;28.19
59971;BME280;45825;45.434;9.116;2023-04-27T11:26:37;100429.94;;;28.55;28.34
59971;BME280;45825;45.434;9.116;2023-04-27T11:29:08;100430.78;;;28.56;28.41
59971;BME280;45825;45.434;9.116;2023-04-27T11:31:41;100425.03;;;28.79;28.02
59971;BME280;45825;45.434;9.116;2023-04-27T11:34:08;100418.34;;;27.76;29.52
59971;BME280;45825;45.434;9.116;2023-04-27T11:36:34;100417.72;;;26.48;29.71
59971;BME280;45825;45.434;9.116;2023-04-27T11:39:00;100422.84;;;24.88;32.33
59971;BME280;45825;45.434;9.116;2023-04-27T11:41:33;100417.78;;;25.72;32.86
59971;BME280;45825;45.434;9.116;2023-04-27T11:44:06;100413.78;;;27.33;31.16
59971;BME280;45825;45.434;9.116;2023-04-27T11:46:34;100414.50;;;27.64;29.92
59971;BME280;45825;45.434;9.116;2023-04-27T11:49:05;100407.72;;;27.53;28.10
59971;BME280;45825;45.434;9.116;2023-04-27T11:51:31;100418.09;;;27.27;28.08
59971;BME280;45825;45.434;9.116;2023-04-27T11:54:03;100397.84;;;28.17;29.63
59971;BME280;45825;45.434;9.116;2023-04-27T11:59:00;100394.59;;;28.64;28.93
59971;BME280;45825;45.434;9.116;2023-04-27T12:01:26;100392.38;;;28.81;28.15
59971;BME280;45825;45.434;9.116;2023-04-27T12:03:52;100399.47;;;28.11;27.98
59971;BME280;45825;45.434;9.116;2023-04-27T12:06:27;100397.63;;;26.96;28.20
59971;BME280;45825;45.434;9.116;2023-04-27T12:08:54;100403.13;;;26.88;29.82
59971;BME280;45825;45.434;9.116;2023-04-27T12:11:20;100400.34;;;27.40;30.36
59971;BME280;45825;45.434;9.116;2023-04-27T12:13:46;100404.50;;;28.14;30.16
59971;BME280;45825;45.434;9.116;2023-04-27T12:16:11;100392.16;;;27.11;30.93
59971;BME280;45825;45.434;9.116;2023-04-27T12:18:37;100396.91;;;27.09;30.10
59971;BME280;45825;45.434;9.116;2023-04-27T12:21:02;100386.78;;;27.11;28.14
59971;BME280;45825;45.434;9.116;2023-04-27T12:23:30;100395.34;;;26.33;28.61
59971;BME280;45825;45.434;9.116;2023-04-27T12:25:55;100390.25;;;25.85;31.01
59971;BME280;45825;45.434;9.116;2023-04-27T12:28:20;100391.06;;;26.54;29.48
59971;BME280;45825;45.434;9.116;2023-04-27T12:30:46;100389.31;;;25.92;29.94
59971;BME280;45825;45.434;9.116;2023-04-27T12:33:11;100394.31;;;26.34;30.84
59971;BME280;45825;45.434;9.116;2023-04-27T12:35:36;100386.88;;;26.21;30.73
59971;BME280;45825;45.434;9.116;2023-04-27T12:38:02;100385.19;;;26.20;29.21
59971;BME280;45825;45.434;9.116;2023-04-27T12:40:29;100386.22;;;26.34;28.95
59971;BME280;45825;45.434;9.116;2023-04-27T12:42:55;100387.69;;;25.45;29.52
59971;BME280;45825;45.434;9.116;2023-04-27T12:45:20;100383.34;;;25.82;31.59
59971;BME280;45825;45.434;9.116;2023-04-27T12:47:45;100378.38;;;25.94;30.18
59971;BME280;45825;45.434;9.116;2023-04-27T12:50:12;100381.28;;;25.46;29.92
59971;BME280;45825;45.434;9.116;2023-04-27T12:52:37;100380.56;;;24.09;31.19
59971;BME280;45825;45.434;9.116;2023-04-27T12:55:03;100377.22;;;25.27;33.41
59971;BME280;45825;45.434;9.116;2023-04-27T12:57:30;100369.06;;;25.35;31.94
59971;BME280;45825;45.434;9.116;2023-04-27T12:59:55;100369.69;;;25.22;30.54
59971;BME280;45825;45.434;9.116;2023-04-27T13:02:20;100369.47;;;24.20;30.71
59971;BME280;45825;45.434;9.116;2023-04-27T13:04:46;100364.16;;;24.92;33.09